sensor_id;sensor_type;location;lat;lon;timestamp;temperature;humidity
21518;DHT22;61765;45.794;24.150;2022-10-31T00:07:41;17.40;84.90
21518;DHT22;61765;45.794;24.150;2022-10-31T00:15:49;17.30;85.00
21518;DHT22;61765;45.794;24.150;2022-10-31T00:23:54;17.30;85.20
21518;DHT22;61765;45.794;24.150;2022-10-31T00:32:02;17.20;84.90
21518;DHT22;61765;45.794;24.150;2022-10-31T00:40:09;17.00;85.20
21518;DHT22;61765;45.794;24.150;2022-10-31T00:48:18;16.80;85.60
21518;DHT22;61765;45.794;24.150;2022-10-31T00:56:23;16.70;85.30
21518;DHT22;61765;45.794;24.150;2022-10-31T01:04:31;16.70;85.80
21518;DHT22;61765;45.794;24.150;2022-10-31T01:12:37;16.60;85.80
21518;DHT22;61765;45.794;24.150;2022-10-31T01:20:44;16.60;85.90
21518;DHT22;61765;45.794;24.150;2022-10-31T01:28:51;16.60;85.90
21518;DHT22;61765;45.794;24.150;2022-10-31T01:36:59;16.70;85.70
21518;DHT22;61765;45.794;24.150;2022-10-31T01:45:09;16.50;85.90
21518;DHT22;61765;45.794;24.150;2022-10-31T01:53:18;16.50;85.00
21518;DHT22;61765;45.794;24.150;2022-10-31T02:01:28;16.40;86.10
21518;DHT22;61765;45.794;24.150;2022-10-31T02:09:37;16.40;86.00
21518;DHT22;61765;45.794;24.150;2022-10-31T02:17:43;16.20;86.00
21518;DHT22;61765;45.794;24.150;2022-10-31T02:26:13;16.10;86.00
21518;DHT22;61765;45.794;24.150;2022-10-31T02:34:34;15.90;86.10
21518;DHT22;61765;45.794;24.150;2022-10-31T02:42:48;15.90;86.50
21518;DHT22;61765;45.794;24.150;2022-10-31T02:50:59;15.90;86.60
21518;DHT22;61765;45.794;24.150;2022-10-31T02:59:06;15.70;86.90
21518;DHT22;61765;45.794;24.150;2022-10-31T03:07:19;15.60;87.10
21518;DHT22;61765;45.794;24.150;2022-10-31T03:15:28;15.60;86.70
21518;DHT22;61765;45.794;24.150;2022-10-31T03:23:39;15.50;86.30
21518;DHT22;61765;45.794;24.150;2022-10-31T03:31:55;15.40;86.70
21518;DHT22;61765;45.794;24.150;2022-10-31T03:40:07;15.30;87.30
21518;DHT22;61765;45.794;24.150;2022-10-31T03:48:16;15.30;87.70
21518;DHT22;61765;45.794;24.150;2022-10-31T03:56:29;15.00;88.10
21518;DHT22;61765;45.794;24.150;2022-10-31T04:04:37;15.10;88.80
21518;DHT22;61765;45.794;24.150;2022-10-31T04:12:50;15.00;89.20
21518;DHT22;61765;45.794;24.150;2022-10-31T04:21:02;15.10;89.60
21518;DHT22;61765;45.794;24.150;2022-10-31T04:29:10;15.00;90.10
21518;DHT22;61765;45.794;24.150;2022-10-31T04:37:17;15.10;90.20
21518;DHT22;61765;45.794;24.150;2022-10-31T04:45:25;15.10;90.40
21518;DHT22;61765;45.794;24.150;2022-10-31T04:53:30;15.00;90.30
21518;DHT22;61765;45.794;24.150;2022-10-31T05:02:01;15.00;90.50
21518;DHT22;61765;45.794;24.150;2022-10-31T05:10:23;15.00;90.40
21518;DHT22;61765;45.794;24.150;2022-10-31T05:18:35;15.00;90.50
21518;DHT22;61765;45.794;24.150;2022-10-31T05:27:06;15.10;90.50
21518;DHT22;61765;45.794;24.150;2022-10-31T05:35:15;15.00;90.50
21518;DHT22;61765;45.794;24.150;2022-10-31T05:43:41;15.20;90.50
21518;DHT22;61765;45.794;24.150;2022-10-31T05:51:50;15.20;90.40
21518;DHT22;61765;45.794;24.150;2022-10-31T06:00:02;15.40;90.50
21518;DHT22;61765;45.794;24.150;2022-10-31T06:08:24;15.20;90.50
21518;DHT22;61765;45.794;24.150;2022-10-31T06:16:32;15.60;90.30
21518;DHT22;61765;45.794;24.150;2022-10-31T06:25:00;15.70;90.40
21518;DHT22;61765;45.794;24.150;2022-10-31T06:33:12;15.70;90.30
21518;DHT22;61765;45.794;24.150;2022-10-31T06:41:29;15.70;90.60
21518;DHT22;61765;45.794;24.150;2022-10-31T06:49:35;15.40;91.10
21518;DHT22;61765;45.794;24.150;2022-10-31T06:57:52;15.30;91.20
21518;DHT22;61765;45.794;24.150;2022-10-31T07:06:05;15.70;90.90
21518;DHT22;61765;45.794;24.150;2022-10-31T07:14:13;15.80;90.80
21518;DHT22;61765;45.794;24.150;2022-10-31T07:22:18;15.80;91.20
21518;DHT22;61765;45.794;24.150;2022-10-31T07:30:27;15.90;91.20
21518;DHT22;61765;45.794;24.150;2022-10-31T07:38:32;15.70;91.80
21518;DHT22;61765;45.794;24.150;2022-10-31T07:46:42;15.70;92.00
21518;DHT22;61765;45.794;24.150;2022-10-31T07:55:06;16.20;91.30
21518;DHT22;61765;45.794;24.150;2022-10-31T08:03:16;16.80;91.10
21518;DHT22;61765;45.794;24.150;2022-10-31T08:11:40;17.00;90.80
21518;DHT22;61765;45.794;24.150;2022-10-31T08:19:48;17.20;90.60
21518;DHT22;61765;45.794;24.150;2022-10-31T08:27:57;17.70;90.20
21518;DHT22;61765;45.794;24.150;2022-10-31T08:36:07;17.70;90.00
21518;DHT22;61765;45.794;24.150;2022-10-31T08:44:25;17.60;90.20
21518;DHT22;61765;45.794;24.150;2022-10-31T08:52:32;17.60;90.00
21518;DHT22;61765;45.794;24.150;2022-10-31T09:01:00;17.20;90.70
21518;DHT22;61765;45.794;24.150;2022-10-31T09:09:08;17.50;90.20
21518;DHT22;61765;45.794;24.150;2022-10-31T09:17:13;17.60;90.00
21518;DHT22;61765;45.794;24.150;2022-10-31T09:25:42;17.20;90.70
21518;DHT22;61765;45.794;24.150;2022-10-31T09:34:04;16.90;91.10
21518;DHT22;61765;45.794;24.150;2022-10-31T09:42:47;17.20;91.10
21518;DHT22;61765;45.794;24.150;2022-10-31T09:51:02;17.40;90.50
21518;DHT22;61765;45.794;24.150;2022-10-31T10:17:16;18.20;90.40
21518;DHT22;61765;45.794;24.150;2022-10-31T10:25:25;18.70;89.20
21518;DHT22;61765;45.794;24.150;2022-10-31T10:33:38;19.20;87.10
21518;DHT22;61765;45.794;24.150;2022-10-31T10:41:47;19.20;87.70
21518;DHT22;61765;45.794;24.150;2022-10-31T10:50:13;19.60;86.70
21518;DHT22;61765;45.794;24.150;2022-10-31T10:58:20;19.40;86.10
21518;DHT22;61765;45.794;24.150;2022-10-31T11:06:28;19.40;85.50
21518;DHT22;61765;45.794;24.150;2022-10-31T11:14:42;19.80;85.90
21518;DHT22;61765;45.794;24.150;2022-10-31T11:23:01;20.40;84.60
21518;DHT22;61765;45.794;24.150;2022-10-31T11:31:08;21.00;81.70
21518;DHT22;61765;45.794;24.150;2022-10-31T11:39:22;21.10;82.10
21518;DHT22;61765;45.794;24.150;2022-10-31T11:47:29;20.90;81.50
21518;DHT22;61765;45.794;24.150;2022-10-31T11:55:39;20.40;83.20
21518;DHT22;61765;45.794;24.150;2022-10-31T12:04:02;19.60;85.40
21518;DHT22;61765;45.794;24.150;2022-10-31T12:12:48;19.40;86.80
21518;DHT22;61765;45.794;24.150;2022-10-31T12:21:10;19.60;86.30
21518;DHT22;61765;45.794;24.150;2022-10-31T12:29:31;20.00;85.80
21518;DHT22;61765;45.794;24.150;2022-10-31T12:37:47;20.30;84.80
21518;DHT22;61765;45.794;24.150;2022-10-31T12:45:58;20.00;85.40
21518;DHT22;61765;45.794;24.150;2022-10-31T12:54:26;20.20;85.20
21518;DHT22;61765;45.794;24.150;2022-10-31T13:02:39;20.40;84.60
21518;DHT22;61765;45.794;24.150;2022-10-31T13:10:50;20.40;84.00
21518;DHT22;61765;45.794;24.150;2022-10-31T13:19:02;20.50;83.70
21518;DHT22;61765;45.794;24.150;2022-10-31T13:27:14;20.50;83.80
21518;DHT22;61765;45.794;24.150;2022-10-31T13:35:28;20.60;83.20
21518;DHT22;61765;45.794;24.150;2022-10-31T13:43:48;20.60;83.20
21518;DHT22;61765;45.794;24.150;2022-10-31T13:52:14;20.60;83.10
21518;DHT22;61765;45.794;24.150;2022-10-31T14:00:24;20.60;83.80
21518;DHT22;61765;45.794;24.150;2022-10-31T14:08:35;20.50;82.90
21518;DHT22;61765;45.794;24.150;2022-10-31T14:16:43;20.50;82.90
21518;DHT22;61765;45.794;24.150;2022-10-31T14:24:58;20.50;82.80
21518;DHT22;61765;45.794;24.150;2022-10-31T14:33:19;20.40;82.90
21518;DHT22;61765;45.794;24.150;2022-10-31T14:41:50;20.30;82.70
21518;DHT22;61765;45.794;24.150;2022-10-31T14:50:20;20.20;82.80
21518;DHT22;61765;45.794;24.150;2022-10-31T14:58:35;20.00;82.80
21518;DHT22;61765;45.794;24.150;2022-10-31T15:06:44;20.00;83.10
21518;DHT22;61765;45.794;24.150;2022-10-31T15:14:52;19.90;83.40
21518;DHT22;61765;45.794;24.150;2022-10-31T15:22:59;19.70;83.60
21518;DHT22;61765;45.794;24.150;2022-10-31T15:31:14;19.60;83.80
21518;DHT22;61765;45.794;24.150;2022-10-31T15:39:20;19.40;84.00
21518;DHT22;61765;45.794;24.150;2022-10-31T15:47:29;19.30;84.40
21518;DHT22;61765;45.794;24.150;2022-10-31T15:55:38;19.20;84.80
21518;DHT22;61765;45.794;24.150;2022-10-31T16:04:04;19.10;84.90
21518;DHT22;61765;45.794;24.150;2022-10-31T16:12:15;19.10;85.30
21518;DHT22;61765;45.794;24.150;2022-10-31T16:20:28;18.90;85.80
21518;DHT22;61765;45.794;24.150;2022-10-31T16:28:36;18.80;86.30
21518;DHT22;61765;45.794;24.150;2022-10-31T16:36:47;18.70;87.30
21518;DHT22;61765;45.794;24.150;2022-10-31T16:44:52;18.60;87.80
21518;DHT22;61765;45.794;24.150;2022-10-31T16:53:00;18.60;88.20
21518;DHT22;61765;45.794;24.150;2022-10-31T17:01:20;18.50;88.70
21518;DHT22;61765;45.794;24.150;2022-10-31T17:09:28;18.30;89.00
21518;DHT22;61765;45.794;24.150;2022-10-31T17:17:34;18.20;89.10
21518;DHT22;61765;45.794;24.150;2022-10-31T17:25:42;18.00;89.10
21518;DHT22;61765;45.794;24.150;2022-10-31T17:33:48;17.90;89.20
21518;DHT22;61765;45.794;24.150;2022-10-31T17:41:56;17.70;89.30
21518;DHT22;61765;45.794;24.150;2022-10-31T17:50:05;17.60;89.50
21518;DHT22;61765;45.794;24.150;2022-10-31T17:58:13;17.40;89.60
21518;DHT22;61765;45.794;24.150;2022-10-31T18:06:18;17.30;89.90
21518;DHT22;61765;45.794;24.150;2022-10-31T18:14:26;17.10;90.20
21518;DHT22;61765;45.794;24.150;2022-10-31T18:22:32;17.00;90.40
21518;DHT22;61765;45.794;24.150;2022-10-31T18:30:43;16.80;90.50
21518;DHT22;61765;45.794;24.150;2022-10-31T18:38:48;16.80;90.60
21518;DHT22;61765;45.794;24.150;2022-10-31T18:46:56;16.70;90.70
21518;DHT22;61765;45.794;24.150;2022-10-31T18:55:05;16.60;90.70
21518;DHT22;61765;45.794;24.150;2022-10-31T19:03:16;16.60;90.60
21518;DHT22;61765;45.794;24.150;2022-10-31T19:11:27;16.40;90.70
21518;DHT22;61765;45.794;24.150;2022-10-31T19:19:37;16.40;90.60
21518;DHT22;61765;45.794;24.150;2022-10-31T19:27:43;16.30;90.60
21518;DHT22;61765;45.794;24.150;2022-10-31T19:35:51;16.40;90.50
21518;DHT22;61765;45.794;24.150;2022-10-31T19:43:58;16.40;90.40
21518;DHT22;61765;45.794;24.150;2022-10-31T19:52:07;16.30;90.40
21518;DHT22;61765;45.794;24.150;2022-10-31T20:00:15;16.20;90.50
21518;DHT22;61765;45.794;24.150;2022-10-31T20:08:23;16.20;90.50
21518;DHT22;61765;45.794;24.150;2022-10-31T20:16:30;16.10;90.50
21518;DHT22;61765;45.794;24.150;2022-10-31T20:24:39;16.10;90.50
21518;DHT22;61765;45.794;24.150;2022-10-31T20:32:44;16.10;90.60
21518;DHT22;61765;45.794;24.150;2022-10-31T20:40:58;16.00;90.50
21518;DHT22;61765;45.794;24.150;2022-10-31T20:49:04;16.00;90.40
21518;DHT22;61765;45.794;24.150;2022-10-31T20:57:12;16.00;90.50
21518;DHT22;61765;45.794;24.150;2022-10-31T21:05:18;16.10;90.40
21518;DHT22;61765;45.794;24.150;2022-10-31T21:13:26;16.10;90.60
21518;DHT22;61765;45.794;24.150;2022-10-31T21:21:37;16.00;90.50
21518;DHT22;61765;45.794;24.150;2022-10-31T21:29:45;16.00;90.50
21518;DHT22;61765;45.794;24.150;2022-10-31T21:37:50;16.10;90.40
21518;DHT22;61765;45.794;24.150;2022-10-31T21:46:01;16.10;90.00
21518;DHT22;61765;45.794;24.150;2022-10-31T21:54:07;15.90;89.60
21518;DHT22;61765;45.794;24.150;2022-10-31T22:02:28;15.80;89.40
21518;DHT22;61765;45.794;24.150;2022-10-31T22:10:34;15.70;89.70
21518;DHT22;61765;45.794;24.150;2022-10-31T22:18:43;15.70;90.00
21518;DHT22;61765;45.794;24.150;2022-10-31T22:26:49;15.60;90.10
21518;DHT22;61765;45.794;24.150;2022-10-31T22:34:57;15.60;90.30
21518;DHT22;61765;45.794;24.150;2022-10-31T22:43:02;15.60;90.20
21518;DHT22;61765;45.794;24.150;2022-10-31T22:51:11;15.40;90.50
21518;DHT22;61765;45.794;24.150;2022-10-31T22:59:17;15.30;91.00
21518;DHT22;61765;45.794;24.150;2022-10-31T23:07:25;15.30;91.30
21518;DHT22;61765;45.794;24.150;2022-10-31T23:15:36;15.30;91.40
21518;DHT22;61765;45.794;24.150;2022-10-31T23:23:44;15.10;91.90
21518;DHT22;61765;45.794;24.150;2022-10-31T23:31:49;14.90;92.20
21518;DHT22;61765;45.794;24.150;2022-10-31T23:39:58;14.60;92.60
21518;DHT22;61765;45.794;24.150;2022-10-31T23:48:04;14.90;92.50
21518;DHT22;61765;45.794;24.150;2022-10-31T23:56:13;15.10;92.20
